sensor_id;sensor_type;location;lat;lon;timestamp;temperature;humidity
55648;DHT22;45266;48.756;9.246;2024-01-15T00:01:42;-3.20;83.10
55648;DHT22;45266;48.756;9.246;2024-01-15T00:06:44;-3.20;82.70
55648;DHT22;45266;48.756;9.246;2024-01-15T00:11:46;-3.10;82.00
55648;DHT22;45266;48.756;9.246;2024-01-15T00:16:48;-2.90;80.90
55648;DHT22;45266;48.756;9.246;2024-01-15T00:21:52;-2.90;80.00
55648;DHT22;45266;48.756;9.246;2024-01-15T00:26:53;-2.90;79.60
55648;DHT22;45266;48.756;9.246;2024-01-15T00:31:55;-3.10;80.00
55648;DHT22;45266;48.756;9.246;2024-01-15T00:36:57;-3.20;80.50
55648;DHT22;45266;48.756;9.246;2024-01-15T00:41:59;-3.40;81.50
55648;DHT22;45266;48.756;9.246;2024-01-15T00:47:01;-3.50;81.50
55648;DHT22;45266;48.756;9.246;2024-01-15T00:52:03;-3.60;82.00
55648;DHT22;45266;48.756;9.246;2024-01-15T00:57:05;-3.80;82.60
55648;DHT22;45266;48.756;9.246;2024-01-15T01:02:07;-4.00;83.30
55648;DHT22;45266;48.756;9.246;2024-01-15T01:07:09;-4.10;84.20
55648;DHT22;45266;48.756;9.246;2024-01-15T01:12:11;-4.20;84.80
55648;DHT22;45266;48.756;9.246;2024-01-15T01:17:13;-4.30;85.40
55648;DHT22;45266;48.756;9.246;2024-01-15T01:22:15;-4.30;85.70
55648;DHT22;45266;48.756;9.246;2024-01-15T01:27:17;-4.30;85.90
55648;DHT22;45266;48.756;9.246;2024-01-15T01:32:19;-4.30;86.10
55648;DHT22;45266;48.756;9.246;2024-01-15T01:37:21;-4.30;86.50
55648;DHT22;45266;48.756;9.246;2024-01-15T01:42:22;-4.30;87.30
55648;DHT22;45266;48.756;9.246;2024-01-15T01:47:24;-4.30;87.30
55648;DHT22;45266;48.756;9.246;2024-01-15T01:52:28;-4.20;87.70
55648;DHT22;45266;48.756;9.246;2024-01-15T01:57:31;-4.10;88.00
55648;DHT22;45266;48.756;9.246;2024-01-15T02:02:34;-4.00;87.70
55648;DHT22;45266;48.756;9.246;2024-01-15T02:07:36;-3.90;87.70
55648;DHT22;45266;48.756;9.246;2024-01-15T02:12:38;-3.80;87.30
55648;DHT22;45266;48.756;9.246;2024-01-15T02:18:00;-3.80;87.20
55648;DHT22;45266;48.756;9.246;2024-01-15T02:23:09;-3.80;87.30
55648;DHT22;45266;48.756;9.246;2024-01-15T02:28:16;-3.80;87.50
55648;DHT22;45266;48.756;9.246;2024-01-15T02:33:19;-3.80;87.60
55648;DHT22;45266;48.756;9.246;2024-01-15T02:38:20;-3.70;87.50
55648;DHT22;45266;48.756;9.246;2024-01-15T02:43:22;-3.80;87.70
55648;DHT22;45266;48.756;9.246;2024-01-15T02:48:24;-3.80;87.50
55648;DHT22;45266;48.756;9.246;2024-01-15T02:53:26;-3.80;87.60
55648;DHT22;45266;48.756;9.246;2024-01-15T02:58:28;-3.80;87.70
55648;DHT22;45266;48.756;9.246;2024-01-15T03:03:30;-3.90;87.80
55648;DHT22;45266;48.756;9.246;2024-01-15T03:08:32;-4.00;87.60
55648;DHT22;45266;48.756;9.246;2024-01-15T03:13:36;-4.00;87.60
55648;DHT22;45266;48.756;9.246;2024-01-15T03:18:38;-4.10;88.00
55648;DHT22;45266;48.756;9.246;2024-01-15T03:23:40;-4.30;87.90
55648;DHT22;45266;48.756;9.246;2024-01-15T03:28:42;-4.40;88.00
55648;DHT22;45266;48.756;9.246;2024-01-15T03:33:44;-4.60;88.20
55648;DHT22;45266;48.756;9.246;2024-01-15T03:38:46;-4.60;88.80
55648;DHT22;45266;48.756;9.246;2024-01-15T03:43:48;-4.60;89.20
55648;DHT22;45266;48.756;9.246;2024-01-15T03:48:50;-4.80;89.40
55648;DHT22;45266;48.756;9.246;2024-01-15T03:53:52;-4.90;90.10
55648;DHT22;45266;48.756;9.246;2024-01-15T03:58:54;-4.90;90.20
55648;DHT22;45266;48.756;9.246;2024-01-15T04:03:55;-5.00;90.70
55648;DHT22;45266;48.756;9.246;2024-01-15T04:08:58;-5.00;91.50
55648;DHT22;45266;48.756;9.246;2024-01-15T04:14:00;-5.00;91.90
55648;DHT22;45266;48.756;9.246;2024-01-15T04:19:02;-4.90;92.20
55648;DHT22;45266;48.756;9.246;2024-01-15T04:24:04;-4.90;92.00
55648;DHT22;45266;48.756;9.246;2024-01-15T04:29:06;-4.90;92.50
55648;DHT22;45266;48.756;9.246;2024-01-15T04:34:08;-4.80;92.80
55648;DHT22;45266;48.756;9.246;2024-01-15T04:39:10;-4.60;92.70
55648;DHT22;45266;48.756;9.246;2024-01-15T04:44:13;-4.60;92.80
55648;DHT22;45266;48.756;9.246;2024-01-15T04:49:15;-4.50;92.80
55648;DHT22;45266;48.756;9.246;2024-01-15T04:54:17;-4.40;92.80
55648;DHT22;45266;48.756;9.246;2024-01-15T04:59:20;-4.30;92.70
55648;DHT22;45266;48.756;9.246;2024-01-15T05:04:22;-4.10;92.30
55648;DHT22;45266;48.756;9.246;2024-01-15T05:09:24;-4.00;92.20
55648;DHT22;45266;48.756;9.246;2024-01-15T05:14:26;-3.50;91.30
55648;DHT22;45266;48.756;9.246;2024-01-15T05:19:28;-2.80;88.70
55648;DHT22;45266;48.756;9.246;2024-01-15T05:24:30;-2.20;85.20
55648;DHT22;45266;48.756;9.246;2024-01-15T05:29:32;-1.90;82.80
55648;DHT22;45266;48.756;9.246;2024-01-15T05:34:34;-1.80;81.70
55648;DHT22;45266;48.756;9.246;2024-01-15T05:39:36;-1.60;80.30
55648;DHT22;45266;48.756;9.246;2024-01-15T05:44:38;-1.60;79.90
55648;DHT22;45266;48.756;9.246;2024-01-15T05:49:40;-1.50;79.50
55648;DHT22;45266;48.756;9.246;2024-01-15T05:54:42;-1.30;78.80
55648;DHT22;45266;48.756;9.246;2024-01-15T05:59:44;-1.30;78.00
55648;DHT22;45266;48.756;9.246;2024-01-15T06:04:46;-1.10;77.60
55648;DHT22;45266;48.756;9.246;2024-01-15T06:09:48;-1.10;77.30
55648;DHT22;45266;48.756;9.246;2024-01-15T06:14:50;-1.10;77.40
55648;DHT22;45266;48.756;9.246;2024-01-15T06:19:52;-1.10;77.50
55648;DHT22;45266;48.756;9.246;2024-01-15T06:24:57;-1.20;78.30
55648;DHT22;45266;48.756;9.246;2024-01-15T06:29:59;-1.20;78.40
55648;DHT22;45266;48.756;9.246;2024-01-15T06:35:01;-1.10;78.50
55648;DHT22;45266;48.756;9.246;2024-01-15T06:40:03;-1.10;78.30
55648;DHT22;45266;48.756;9.246;2024-01-15T06:45:07;-1.10;78.30
55648;DHT22;45266;48.756;9.246;2024-01-15T06:50:09;-1.10;78.10
55648;DHT22;45266;48.756;9.246;2024-01-15T06:55:11;-1.00;78.00
55648;DHT22;45266;48.756;9.246;2024-01-15T07:00:13;-1.10;78.00
55648;DHT22;45266;48.756;9.246;2024-01-15T07:05:15;-1.10;77.90
55648;DHT22;45266;48.756;9.246;2024-01-15T07:10:17;-1.10;77.50
55648;DHT22;45266;48.756;9.246;2024-01-15T07:15:19;-1.10;77.20
55648;DHT22;45266;48.756;9.246;2024-01-15T07:20:21;-1.10;77.30
55648;DHT22;45266;48.756;9.246;2024-01-15T07:25:23;-1.00;76.50
55648;DHT22;45266;48.756;9.246;2024-01-15T07:30:27;-0.90;75.40
55648;DHT22;45266;48.756;9.246;2024-01-15T07:35:29;-0.80;74.70
55648;DHT22;45266;48.756;9.246;2024-01-15T07:40:31;-0.80;74.30
55648;DHT22;45266;48.756;9.246;2024-01-15T07:45:33;-0.70;74.10
55648;DHT22;45266;48.756;9.246;2024-01-15T07:50:35;-0.70;73.40
55648;DHT22;45266;48.756;9.246;2024-01-15T07:55:37;-0.70;73.00
55648;DHT22;45266;48.756;9.246;2024-01-15T08:00:39;-0.60;72.50
55648;DHT22;45266;48.756;9.246;2024-01-15T08:05:41;-0.60;72.20
55648;DHT22;45266;48.756;9.246;2024-01-15T08:10:43;-0.50;71.80
55648;DHT22;45266;48.756;9.246;2024-01-15T08:15:45;-0.60;72.00
55648;DHT22;45266;48.756;9.246;2024-01-15T08:20:47;-0.60;71.50
55648;DHT22;45266;48.756;9.246;2024-01-15T08:25:49;-0.50;71.30
55648;DHT22;45266;48.756;9.246;2024-01-15T08:30:52;-0.50;71.00
55648;DHT22;45266;48.756;9.246;2024-01-15T08:35:54;-0.40;70.40
55648;DHT22;45266;48.756;9.246;2024-01-15T08:40:56;-0.30;70.60
55648;DHT22;45266;48.756;9.246;2024-01-15T08:46:00;-0.30;69.90
55648;DHT22;45266;48.756;9.246;2024-01-15T08:51:03;-0.30;69.80
55648;DHT22;45266;48.756;9.246;2024-01-15T08:56:05;-0.30;69.60
55648;DHT22;45266;48.756;9.246;2024-01-15T09:01:07;-0.10;69.40
55648;DHT22;45266;48.756;9.246;2024-01-15T09:06:10;-0.10;68.40
55648;DHT22;45266;48.756;9.246;2024-01-15T09:11:12;-0.10;68.50
55648;DHT22;45266;48.756;9.246;2024-01-15T09:16:14;0.00;67.90
55648;DHT22;45266;48.756;9.246;2024-01-15T09:21:16;0.00;67.10
55648;DHT22;45266;48.756;9.246;2024-01-15T09:26:18;0.10;66.10
55648;DHT22;45266;48.756;9.246;2024-01-15T09:31:20;0.20;66.20
55648;DHT22;45266;48.756;9.246;2024-01-15T09:36:23;0.20;66.70
55648;DHT22;45266;48.756;9.246;2024-01-15T09:41:25;0.20;66.30
55648;DHT22;45266;48.756;9.246;2024-01-15T09:46:27;0.30;65.50
55648;DHT22;45266;48.756;9.246;2024-01-15T09:51:32;0.40;65.30
55648;DHT22;45266;48.756;9.246;2024-01-15T09:56:35;0.50;64.90
55648;DHT22;45266;48.756;9.246;2024-01-15T10:01:40;0.60;64.80
55648;DHT22;45266;48.756;9.246;2024-01-15T10:06:45;0.70;64.60
55648;DHT22;45266;48.756;9.246;2024-01-15T10:11:47;0.70;64.30
55648;DHT22;45266;48.756;9.246;2024-01-15T10:16:49;0.80;64.20
55648;DHT22;45266;48.756;9.246;2024-01-15T10:21:51;0.80;64.50
55648;DHT22;45266;48.756;9.246;2024-01-15T10:27:05;0.80;63.60
55648;DHT22;45266;48.756;9.246;2024-01-15T10:32:08;0.80;64.00
55648;DHT22;45266;48.756;9.246;2024-01-15T10:37:12;0.80;64.30
55648;DHT22;45266;48.756;9.246;2024-01-15T10:42:14;0.80;64.00
55648;DHT22;45266;48.756;9.246;2024-01-15T10:47:17;0.90;64.00
55648;DHT22;45266;48.756;9.246;2024-01-15T10:52:19;1.00;64.10
55648;DHT22;45266;48.756;9.246;2024-01-15T10:57:21;1.00;63.70
55648;DHT22;45266;48.756;9.246;2024-01-15T11:02:25;1.00;64.10
55648;DHT22;45266;48.756;9.246;2024-01-15T11:07:30;1.00;64.00
55648;DHT22;45266;48.756;9.246;2024-01-15T11:12:32;1.10;64.30
55648;DHT22;45266;48.756;9.246;2024-01-15T11:17:59;1.10;64.50
55648;DHT22;45266;48.756;9.246;2024-01-15T11:23:03;1.20;64.40
55648;DHT22;45266;48.756;9.246;2024-01-15T11:28:04;1.40;64.80
55648;DHT22;45266;48.756;9.246;2024-01-15T11:33:06;1.20;66.30
55648;DHT22;45266;48.756;9.246;2024-01-15T11:38:29;1.20;67.80
55648;DHT22;45266;48.756;9.246;2024-01-15T11:43:31;1.20;66.90
55648;DHT22;45266;48.756;9.246;2024-01-15T11:48:42;1.20;66.60
55648;DHT22;45266;48.756;9.246;2024-01-15T11:53:48;1.20;67.00
55648;DHT22;45266;48.756;9.246;2024-01-15T11:58:53;1.20;68.30
55648;DHT22;45266;48.756;9.246;2024-01-15T12:03:54;1.10;69.00
55648;DHT22;45266;48.756;9.246;2024-01-15T12:09:08;1.10;69.80
55648;DHT22;45266;48.756;9.246;2024-01-15T12:14:10;1.00;70.30
55648;DHT22;45266;48.756;9.246;2024-01-15T12:19:14;1.00;70.90
55648;DHT22;45266;48.756;9.246;2024-01-15T12:24:17;1.00;71.00
55648;DHT22;45266;48.756;9.246;2024-01-15T12:29:19;1.00;72.60
55648;DHT22;45266;48.756;9.246;2024-01-15T12:34:21;0.80;74.60
55648;DHT22;45266;48.756;9.246;2024-01-15T12:39:24;0.70;77.70
55648;DHT22;45266;48.756;9.246;2024-01-15T12:44:27;0.60;79.20
55648;DHT22;45266;48.756;9.246;2024-01-15T12:49:30;0.50;81.20
55648;DHT22;45266;48.756;9.246;2024-01-15T12:54:32;0.40;83.00
55648;DHT22;45266;48.756;9.246;2024-01-15T12:59:34;0.30;84.20
55648;DHT22;45266;48.756;9.246;2024-01-15T13:04:37;0.30;85.20
55648;DHT22;45266;48.756;9.246;2024-01-15T13:09:38;0.20;86.20
55648;DHT22;45266;48.756;9.246;2024-01-15T13:14:41;0.30;86.40
55648;DHT22;45266;48.756;9.246;2024-01-15T13:19:43;0.30;86.20
55648;DHT22;45266;48.756;9.246;2024-01-15T13:24:45;0.30;86.00
55648;DHT22;45266;48.756;9.246;2024-01-15T13:29:47;0.30;86.50
55648;DHT22;45266;48.756;9.246;2024-01-15T13:34:49;0.20;86.60
55648;DHT22;45266;48.756;9.246;2024-01-15T13:39:52;0.20;87.10
55648;DHT22;45266;48.756;9.246;2024-01-15T13:44:55;0.10;87.20
55648;DHT22;45266;48.756;9.246;2024-01-15T13:49:57;0.20;87.50
55648;DHT22;45266;48.756;9.246;2024-01-15T13:54:59;0.20;87.20
55648;DHT22;45266;48.756;9.246;2024-01-15T14:00:01;0.20;87.10
55648;DHT22;45266;48.756;9.246;2024-01-15T14:05:04;0.10;87.50
55648;DHT22;45266;48.756;9.246;2024-01-15T14:10:07;0.10;88.00
55648;DHT22;45266;48.756;9.246;2024-01-15T14:15:09;0.00;88.90
55648;DHT22;45266;48.756;9.246;2024-01-15T14:20:11;0.00;89.10
55648;DHT22;45266;48.756;9.246;2024-01-15T14:25:14;0.00;89.60
55648;DHT22;45266;48.756;9.246;2024-01-15T14:30:16;0.00;90.00
55648;DHT22;45266;48.756;9.246;2024-01-15T14:35:20;0.00;90.10
55648;DHT22;45266;48.756;9.246;2024-01-15T14:40:22;0.00;90.00
55648;DHT22;45266;48.756;9.246;2024-01-15T14:45:24;0.00;88.50
55648;DHT22;45266;48.756;9.246;2024-01-15T14:50:28;0.00;86.70
55648;DHT22;45266;48.756;9.246;2024-01-15T14:55:30;0.00;85.90
55648;DHT22;45266;48.756;9.246;2024-01-15T15:00:34;0.00;85.50
55648;DHT22;45266;48.756;9.246;2024-01-15T15:05:36;0.00;86.00
55648;DHT22;45266;48.756;9.246;2024-01-15T15:10:38;-0.10;86.70
55648;DHT22;45266;48.756;9.246;2024-01-15T15:15:42;-0.10;87.00
55648;DHT22;45266;48.756;9.246;2024-01-15T15:20:44;-0.10;87.20
55648;DHT22;45266;48.756;9.246;2024-01-15T15:25:46;-0.20;86.90
55648;DHT22;45266;48.756;9.246;2024-01-15T15:30:48;-0.20;86.20
55648;DHT22;45266;48.756;9.246;2024-01-15T15:35:50;-0.20;85.80
55648;DHT22;45266;48.756;9.246;2024-01-15T15:40:53;-0.30;85.10
55648;DHT22;45266;48.756;9.246;2024-01-15T15:45:58;-0.20;84.30
55648;DHT22;45266;48.756;9.246;2024-01-15T15:51:00;-0.30;84.30
55648;DHT22;45266;48.756;9.246;2024-01-15T15:56:04;-0.30;83.00
55648;DHT22;45266;48.756;9.246;2024-01-15T16:01:06;-0.30;82.30
55648;DHT22;45266;48.756;9.246;2024-01-15T16:06:09;-0.20;82.30
55648;DHT22;45266;48.756;9.246;2024-01-15T16:11:15;-0.30;81.40
55648;DHT22;45266;48.756;9.246;2024-01-15T16:16:26;-0.30;80.70
55648;DHT22;45266;48.756;9.246;2024-01-15T16:21:50;-0.30;80.70
55648;DHT22;45266;48.756;9.246;2024-01-15T16:27:22;-0.30;80.90
55648;DHT22;45266;48.756;9.246;2024-01-15T16:32:24;-0.40;80.50
55648;DHT22;45266;48.756;9.246;2024-01-15T16:37:27;-0.40;79.50
55648;DHT22;45266;48.756;9.246;2024-01-15T16:42:29;-0.40;78.80
55648;DHT22;45266;48.756;9.246;2024-01-15T16:47:31;-0.50;78.70
55648;DHT22;45266;48.756;9.246;2024-01-15T16:52:33;-0.50;78.30
55648;DHT22;45266;48.756;9.246;2024-01-15T16:57:35;-0.60;78.10
55648;DHT22;45266;48.756;9.246;2024-01-15T17:02:37;-0.60;77.80
55648;DHT22;45266;48.756;9.246;2024-01-15T17:07:39;-0.60;78.50
55648;DHT22;45266;48.756;9.246;2024-01-15T17:12:42;-0.60;77.60
55648;DHT22;45266;48.756;9.246;2024-01-15T17:17:44;-0.60;77.90
55648;DHT22;45266;48.756;9.246;2024-01-15T17:22:46;-0.60;77.90
55648;DHT22;45266;48.756;9.246;2024-01-15T17:27:48;-0.70;78.00
55648;DHT22;45266;48.756;9.246;2024-01-15T17:32:50;-0.60;77.70
55648;DHT22;45266;48.756;9.246;2024-01-15T17:37:52;-0.70;78.60
55648;DHT22;45266;48.756;9.246;2024-01-15T17:42:54;-0.70;78.40
55648;DHT22;45266;48.756;9.246;2024-01-15T17:47:56;-0.70;78.50
55648;DHT22;45266;48.756;9.246;2024-01-15T17:52:58;-0.70;79.00
55648;DHT22;45266;48.756;9.246;2024-01-15T17:58:00;-0.70;78.50
55648;DHT22;45266;48.756;9.246;2024-01-15T18:03:02;-0.60;78.40
55648;DHT22;45266;48.756;9.246;2024-01-15T18:08:04;-0.70;77.60
55648;DHT22;45266;48.756;9.246;2024-01-15T18:13:06;-0.70;77.60
55648;DHT22;45266;48.756;9.246;2024-01-15T18:18:09;-0.70;77.70
55648;DHT22;45266;48.756;9.246;2024-01-15T18:23:11;-0.80;77.50
55648;DHT22;45266;48.756;9.246;2024-01-15T18:28:13;-1.00;77.10
55648;DHT22;45266;48.756;9.246;2024-01-15T18:33:16;-1.20;78.20
55648;DHT22;45266;48.756;9.246;2024-01-15T18:38:18;-1.20;78.60
55648;DHT22;45266;48.756;9.246;2024-01-15T18:43:20;-1.30;78.50
55648;DHT22;45266;48.756;9.246;2024-01-15T18:48:23;-1.40;78.40
55648;DHT22;45266;48.756;9.246;2024-01-15T18:53:25;-1.40;78.50
55648;DHT22;45266;48.756;9.246;2024-01-15T18:58:27;-1.40;78.10
55648;DHT22;45266;48.756;9.246;2024-01-15T19:03:29;-1.30;79.00
55648;DHT22;45266;48.756;9.246;2024-01-15T19:08:31;-1.30;77.90
55648;DHT22;45266;48.756;9.246;2024-01-15T19:13:33;-1.20;77.70
55648;DHT22;45266;48.756;9.246;2024-01-15T19:18:35;-1.10;76.60
55648;DHT22;45266;48.756;9.246;2024-01-15T19:23:37;-1.00;75.80
55648;DHT22;45266;48.756;9.246;2024-01-15T19:28:39;-0.90;74.80
55648;DHT22;45266;48.756;9.246;2024-01-15T19:33:41;-0.90;74.30
55648;DHT22;45266;48.756;9.246;2024-01-15T19:38:44;-0.80;73.50
55648;DHT22;45266;48.756;9.246;2024-01-15T19:43:46;-0.80;73.40
55648;DHT22;45266;48.756;9.246;2024-01-15T19:48:48;-0.80;72.70
55648;DHT22;45266;48.756;9.246;2024-01-15T19:53:50;-0.80;73.20
55648;DHT22;45266;48.756;9.246;2024-01-15T19:58:52;-0.70;72.60
55648;DHT22;45266;48.756;9.246;2024-01-15T20:03:54;-0.70;72.70
55648;DHT22;45266;48.756;9.246;2024-01-15T20:08:56;-0.70;73.20
55648;DHT22;45266;48.756;9.246;2024-01-15T20:13:59;-0.80;73.20
55648;DHT22;45266;48.756;9.246;2024-01-15T20:19:00;-0.80;73.90
55648;DHT22;45266;48.756;9.246;2024-01-15T20:24:03;-0.90;74.40
55648;DHT22;45266;48.756;9.246;2024-01-15T20:29:05;-0.80;74.00
55648;DHT22;45266;48.756;9.246;2024-01-15T20:34:07;-0.70;73.90
55648;DHT22;45266;48.756;9.246;2024-01-15T20:39:09;-0.80;73.90
55648;DHT22;45266;48.756;9.246;2024-01-15T20:44:11;-0.70;73.10
55648;DHT22;45266;48.756;9.246;2024-01-15T20:49:13;-0.80;73.20
55648;DHT22;45266;48.756;9.246;2024-01-15T20:54:16;-0.70;73.20
55648;DHT22;45266;48.756;9.246;2024-01-15T20:59:17;-0.80;73.70
55648;DHT22;45266;48.756;9.246;2024-01-15T21:04:19;-0.90;73.60
55648;DHT22;45266;48.756;9.246;2024-01-15T21:09:21;-0.90;74.10
55648;DHT22;45266;48.756;9.246;2024-01-15T21:14:23;-0.90;74.50
55648;DHT22;45266;48.756;9.246;2024-01-15T21:19:25;-1.00;74.00
55648;DHT22;45266;48.756;9.246;2024-01-15T21:24:27;-1.00;73.20
55648;DHT22;45266;48.756;9.246;2024-01-15T21:29:30;-1.00;73.50
55648;DHT22;45266;48.756;9.246;2024-01-15T21:34:32;-1.00;72.90
55648;DHT22;45266;48.756;9.246;2024-01-15T21:39:34;-1.10;73.20
55648;DHT22;45266;48.756;9.246;2024-01-15T21:44:36;-1.10;73.30
55648;DHT22;45266;48.756;9.246;2024-01-15T21:49:38;-1.10;73.50
55648;DHT22;45266;48.756;9.246;2024-01-15T21:54:40;-1.20;73.80
55648;DHT22;45266;48.756;9.246;2024-01-15T21:59:42;-1.20;74.70
55648;DHT22;45266;48.756;9.246;2024-01-15T22:04:44;-1.20;74.40
55648;DHT22;45266;48.756;9.246;2024-01-15T22:09:46;-1.30;74.90
55648;DHT22;45266;48.756;9.246;2024-01-15T22:14:47;-1.30;74.40
55648;DHT22;45266;48.756;9.246;2024-01-15T22:19:50;-1.40;75.20
55648;DHT22;45266;48.756;9.246;2024-01-15T22:24:51;-1.40;74.50
55648;DHT22;45266;48.756;9.246;2024-01-15T22:29:53;-1.30;73.70
55648;DHT22;45266;48.756;9.246;2024-01-15T22:34:55;-1.30;73.40
55648;DHT22;45266;48.756;9.246;2024-01-15T22:39:57;-1.30;73.60
55648;DHT22;45266;48.756;9.246;2024-01-15T22:45:00;-1.30;73.40
55648;DHT22;45266;48.756;9.246;2024-01-15T22:50:02;-1.20;73.20
55648;DHT22;45266;48.756;9.246;2024-01-15T22:55:05;-1.10;74.10
55648;DHT22;45266;48.756;9.246;2024-01-15T23:00:07;-1.10;73.20
55648;DHT22;45266;48.756;9.246;2024-01-15T23:05:25;-1.10;73.20
55648;DHT22;45266;48.756;9.246;2024-01-15T23:10:27;-1.30;73.00
55648;DHT22;45266;48.756;9.246;2024-01-15T23:15:29;-1.30;73.20
55648;DHT22;45266;48.756;9.246;2024-01-15T23:20:30;-1.30;72.80
55648;DHT22;45266;48.756;9.246;2024-01-15T23:25:32;-1.50;73.30
55648;DHT22;45266;48.756;9.246;2024-01-15T23:30:34;-1.60;74.20
55648;DHT22;45266;48.756;9.246;2024-01-15T23:35:36;-1.70;75.10
55648;DHT22;45266;48.756;9.246;2024-01-15T23:40:38;-1.70;75.10
55648;DHT22;45266;48.756;9.246;2024-01-15T23:45:40;-1.60;74.40
55648;DHT22;45266;48.756;9.246;2024-01-15T23:50:42;-1.60;74.40
55648;DHT22;45266;48.756;9.246;2024-01-15T23:55:45;-1.60;74.80
